sensor_id;sensor_type;location;lat;lon;timestamp;temperature;humidity
780;DHT22;373;49.342;8.146;2022-11-21T00:00:40;8.20;99.90
780;DHT22;373;49.342;8.146;2022-11-21T00:03:09;8.20;99.90
780;DHT22;373;49.342;8.146;2022-11-21T00:05:38;8.20;99.90
780;DHT22;373;49.342;8.146;2022-11-21T00:08:05;8.20;99.90
780;DHT22;373;49.342;8.146;2022-11-21T00:10:33;8.20;99.90
780;DHT22;373;49.342;8.146;2022-11-21T00:13:00;8.20;99.90
780;DHT22;373;49.342;8.146;2022-11-21T00:15:27;8.20;99.90
780;DHT22;373;49.342;8.146;2022-11-21T00:17:55;8.30;99.90
780;DHT22;373;49.342;8.146;2022-11-21T00:20:22;8.40;99.90
780;DHT22;373;49.342;8.146;2022-11-21T00:22:49;8.30;99.90
780;DHT22;373;49.342;8.146;2022-11-21T00:25:16;8.30;99.90
780;DHT22;373;49.342;8.146;2022-11-21T00:27:44;8.20;99.90
780;DHT22;373;49.342;8.146;2022-11-21T00:30:11;8.30;99.90
780;DHT22;373;49.342;8.146;2022-11-21T00:32:39;8.20;99.90
780;DHT22;373;49.342;8.146;2022-11-21T00:35:07;8.30;99.90
780;DHT22;373;49.342;8.146;2022-11-21T00:37:34;8.30;99.90
780;DHT22;373;49.342;8.146;2022-11-21T00:40:02;8.20;99.90
780;DHT22;373;49.342;8.146;2022-11-21T00:42:29;8.20;99.90
780;DHT22;373;49.342;8.146;2022-11-21T00:44:56;8.30;99.90
780;DHT22;373;49.342;8.146;2022-11-21T00:47:23;8.30;99.90
780;DHT22;373;49.342;8.146;2022-11-21T00:49:50;8.30;99.90
780;DHT22;373;49.342;8.146;2022-11-21T00:52:19;8.30;99.90
780;DHT22;373;49.342;8.146;2022-11-21T00:54:46;8.30;99.90
780;DHT22;373;49.342;8.146;2022-11-21T00:57:13;8.50;99.90
780;DHT22;373;49.342;8.146;2022-11-21T00:59:40;8.40;99.90
780;DHT22;373;49.342;8.146;2022-11-21T01:02:07;8.40;99.90
780;DHT22;373;49.342;8.146;2022-11-21T01:04:34;8.40;99.90
780;DHT22;373;49.342;8.146;2022-11-21T01:07:01;8.30;99.90
780;DHT22;373;49.342;8.146;2022-11-21T01:09:30;8.20;99.90
780;DHT22;373;49.342;8.146;2022-11-21T01:11:57;8.30;99.90
780;DHT22;373;49.342;8.146;2022-11-21T01:14:24;8.40;99.90
780;DHT22;373;49.342;8.146;2022-11-21T01:16:52;8.30;99.90
780;DHT22;373;49.342;8.146;2022-11-21T01:19:19;8.20;99.90
780;DHT22;373;49.342;8.146;2022-11-21T01:21:46;8.10;99.90
780;DHT22;373;49.342;8.146;2022-11-21T01:24:13;8.10;99.90
780;DHT22;373;49.342;8.146;2022-11-21T01:26:43;8.10;99.90
780;DHT22;373;49.342;8.146;2022-11-21T01:29:10;8.00;99.90
780;DHT22;373;49.342;8.146;2022-11-21T01:31:37;8.00;99.90
780;DHT22;373;49.342;8.146;2022-11-21T01:34:04;7.90;99.90
780;DHT22;373;49.342;8.146;2022-11-21T01:36:33;7.90;99.90
780;DHT22;373;49.342;8.146;2022-11-21T01:39:02;7.90;99.90
780;DHT22;373;49.342;8.146;2022-11-21T01:41:32;8.00;99.90
780;DHT22;373;49.342;8.146;2022-11-21T01:44:02;7.90;99.90
780;DHT22;373;49.342;8.146;2022-11-21T01:46:29;7.80;99.90
780;DHT22;373;49.342;8.146;2022-11-21T01:49:01;7.90;99.90
780;DHT22;373;49.342;8.146;2022-11-21T01:51:31;7.80;99.90
780;DHT22;373;49.342;8.146;2022-11-21T01:54:01;7.90;99.90
780;DHT22;373;49.342;8.146;2022-11-21T01:56:32;7.90;99.90
780;DHT22;373;49.342;8.146;2022-11-21T01:59:04;7.90;99.90
780;DHT22;373;49.342;8.146;2022-11-21T02:01:33;7.90;99.90
780;DHT22;373;49.342;8.146;2022-11-21T02:04:02;7.90;99.90
780;DHT22;373;49.342;8.146;2022-11-21T02:06:31;7.80;99.90
780;DHT22;373;49.342;8.146;2022-11-21T02:08:59;8.00;99.90
780;DHT22;373;49.342;8.146;2022-11-21T02:11:30;8.00;99.90
780;DHT22;373;49.342;8.146;2022-11-21T02:13:59;8.00;99.90
780;DHT22;373;49.342;8.146;2022-11-21T02:16:28;8.00;99.90
780;DHT22;373;49.342;8.146;2022-11-21T02:18:55;8.00;99.90
780;DHT22;373;49.342;8.146;2022-11-21T02:21:32;8.10;99.90
780;DHT22;373;49.342;8.146;2022-11-21T02:24:06;8.10;99.90
780;DHT22;373;49.342;8.146;2022-11-21T02:26:37;8.20;99.90
780;DHT22;373;49.342;8.146;2022-11-21T02:29:04;8.10;99.90
780;DHT22;373;49.342;8.146;2022-11-21T02:31:31;8.10;99.90
780;DHT22;373;49.342;8.146;2022-11-21T02:33:58;8.10;99.90
780;DHT22;373;49.342;8.146;2022-11-21T02:36:42;8.10;99.90
780;DHT22;373;49.342;8.146;2022-11-21T02:39:13;8.00;99.90
780;DHT22;373;49.342;8.146;2022-11-21T02:41:48;8.10;99.90
780;DHT22;373;49.342;8.146;2022-11-21T02:44:21;8.00;99.90
780;DHT22;373;49.342;8.146;2022-11-21T02:46:50;8.00;99.90
780;DHT22;373;49.342;8.146;2022-11-21T02:49:23;8.10;99.90
780;DHT22;373;49.342;8.146;2022-11-21T02:51:54;8.00;99.90
780;DHT22;373;49.342;8.146;2022-11-21T02:54:21;8.00;99.90
780;DHT22;373;49.342;8.146;2022-11-21T02:56:49;8.00;99.90
780;DHT22;373;49.342;8.146;2022-11-21T02:59:16;8.00;99.90
780;DHT22;373;49.342;8.146;2022-11-21T03:01:43;8.00;99.90
780;DHT22;373;49.342;8.146;2022-11-21T03:04:10;8.00;99.90
780;DHT22;373;49.342;8.146;2022-11-21T03:06:37;8.10;99.90
780;DHT22;373;49.342;8.146;2022-11-21T03:09:04;8.10;99.90
780;DHT22;373;49.342;8.146;2022-11-21T03:11:31;8.20;99.90
780;DHT22;373;49.342;8.146;2022-11-21T03:14:00;8.20;99.90
780;DHT22;373;49.342;8.146;2022-11-21T03:16:27;8.20;99.90
780;DHT22;373;49.342;8.146;2022-11-21T03:18:55;8.00;99.90
780;DHT22;373;49.342;8.146;2022-11-21T03:21:22;7.90;99.90
780;DHT22;373;49.342;8.146;2022-11-21T03:23:49;7.90;99.90
780;DHT22;373;49.342;8.146;2022-11-21T03:26:17;7.90;99.90
780;DHT22;373;49.342;8.146;2022-11-21T03:28:44;8.00;99.90
780;DHT22;373;49.342;8.146;2022-11-21T03:31:12;8.00;99.90
780;DHT22;373;49.342;8.146;2022-11-21T03:33:39;8.00;99.90
780;DHT22;373;49.342;8.146;2022-11-21T03:36:06;8.00;99.90
780;DHT22;373;49.342;8.146;2022-11-21T03:38:33;8.00;99.90
780;DHT22;373;49.342;8.146;2022-11-21T03:41:03;8.10;99.90
780;DHT22;373;49.342;8.146;2022-11-21T03:43:30;8.30;99.90
780;DHT22;373;49.342;8.146;2022-11-21T03:45:57;8.10;99.90
780;DHT22;373;49.342;8.146;2022-11-21T03:48:26;8.20;99.90
780;DHT22;373;49.342;8.146;2022-11-21T03:50:53;8.10;99.90
780;DHT22;373;49.342;8.146;2022-11-21T03:53:20;8.00;99.90
780;DHT22;373;49.342;8.146;2022-11-21T03:55:47;8.00;99.90
780;DHT22;373;49.342;8.146;2022-11-21T03:58:14;8.20;99.90
780;DHT22;373;49.342;8.146;2022-11-21T04:00:41;8.30;99.90
780;DHT22;373;49.342;8.146;2022-11-21T04:03:08;8.40;99.90
780;DHT22;373;49.342;8.146;2022-11-21T04:05:37;8.60;99.90
780;DHT22;373;49.342;8.146;2022-11-21T04:08:04;8.60;99.90
780;DHT22;373;49.342;8.146;2022-11-21T04:10:31;8.70;99.90
780;DHT22;373;49.342;8.146;2022-11-21T04:12:58;8.70;99.90
780;DHT22;373;49.342;8.146;2022-11-21T04:15:25;8.50;99.90
780;DHT22;373;49.342;8.146;2022-11-21T04:17:52;8.20;99.90
780;DHT22;373;49.342;8.146;2022-11-21T04:20:19;8.20;99.90
780;DHT22;373;49.342;8.146;2022-11-21T04:22:48;8.30;99.90
780;DHT22;373;49.342;8.146;2022-11-21T04:25:15;8.20;99.90
780;DHT22;373;49.342;8.146;2022-11-21T04:27:42;8.10;99.90
780;DHT22;373;49.342;8.146;2022-11-21T04:30:10;8.10;99.90
780;DHT22;373;49.342;8.146;2022-11-21T04:32:37;8.20;99.90
780;DHT22;373;49.342;8.146;2022-11-21T04:35:05;8.20;99.90
780;DHT22;373;49.342;8.146;2022-11-21T04:37:32;8.30;99.90
780;DHT22;373;49.342;8.146;2022-11-21T04:40:01;8.30;99.90
780;DHT22;373;49.342;8.146;2022-11-21T04:42:28;8.20;99.90
780;DHT22;373;49.342;8.146;2022-11-21T04:44:55;8.20;99.90
780;DHT22;373;49.342;8.146;2022-11-21T04:47:23;8.30;99.90
780;DHT22;373;49.342;8.146;2022-11-21T04:49:50;8.40;99.90
780;DHT22;373;49.342;8.146;2022-11-21T04:52:17;8.50;99.90
780;DHT22;373;49.342;8.146;2022-11-21T04:54:44;8.60;99.90
780;DHT22;373;49.342;8.146;2022-11-21T04:57:13;8.60;99.90
780;DHT22;373;49.342;8.146;2022-11-21T04:59:40;8.30;99.90
780;DHT22;373;49.342;8.146;2022-11-21T05:02:07;8.40;99.90
780;DHT22;373;49.342;8.146;2022-11-21T05:04:36;8.50;99.90
780;DHT22;373;49.342;8.146;2022-11-21T05:07:03;8.30;99.90
780;DHT22;373;49.342;8.146;2022-11-21T05:09:30;8.30;99.90
780;DHT22;373;49.342;8.146;2022-11-21T05:11:57;8.10;99.90
780;DHT22;373;49.342;8.146;2022-11-21T05:14:43;8.10;99.90
780;DHT22;373;49.342;8.146;2022-11-21T05:17:10;8.10;99.90
780;DHT22;373;49.342;8.146;2022-11-21T05:19:37;8.00;99.90
780;DHT22;373;49.342;8.146;2022-11-21T05:22:04;8.00;99.90
780;DHT22;373;49.342;8.146;2022-11-21T05:24:31;7.90;99.90
780;DHT22;373;49.342;8.146;2022-11-21T05:26:58;7.90;99.90
780;DHT22;373;49.342;8.146;2022-11-21T05:29:25;7.90;99.90
780;DHT22;373;49.342;8.146;2022-11-21T05:31:54;8.00;99.90
780;DHT22;373;49.342;8.146;2022-11-21T05:34:21;7.70;99.90
780;DHT22;373;49.342;8.146;2022-11-21T05:36:48;7.70;99.90
780;DHT22;373;49.342;8.146;2022-11-21T05:39:21;7.80;99.90
780;DHT22;373;49.342;8.146;2022-11-21T05:41:48;7.70;99.90
780;DHT22;373;49.342;8.146;2022-11-21T05:44:16;7.60;99.90
780;DHT22;373;49.342;8.146;2022-11-21T05:46:42;7.40;99.90
780;DHT22;373;49.342;8.146;2022-11-21T05:49:10;7.30;99.90
780;DHT22;373;49.342;8.146;2022-11-21T05:51:38;7.20;99.90
780;DHT22;373;49.342;8.146;2022-11-21T05:54:05;7.30;99.90
780;DHT22;373;49.342;8.146;2022-11-21T05:56:32;7.20;99.90
780;DHT22;373;49.342;8.146;2022-11-21T05:58:59;7.20;99.90
780;DHT22;373;49.342;8.146;2022-11-21T06:01:26;7.30;99.90
780;DHT22;373;49.342;8.146;2022-11-21T06:04:14;7.50;99.90
780;DHT22;373;49.342;8.146;2022-11-21T06:06:41;7.60;99.90
780;DHT22;373;49.342;8.146;2022-11-21T06:09:08;7.70;99.90
780;DHT22;373;49.342;8.146;2022-11-21T06:11:35;7.60;99.90
780;DHT22;373;49.342;8.146;2022-11-21T06:14:03;7.60;99.90
780;DHT22;373;49.342;8.146;2022-11-21T06:16:31;7.50;99.90
780;DHT22;373;49.342;8.146;2022-11-21T06:18:58;7.30;99.90
780;DHT22;373;49.342;8.146;2022-11-21T06:21:27;7.30;99.90
780;DHT22;373;49.342;8.146;2022-11-21T06:23:56;7.20;99.90
780;DHT22;373;49.342;8.146;2022-11-21T06:26:26;7.20;99.90
780;DHT22;373;49.342;8.146;2022-11-21T06:28:53;7.20;99.90
780;DHT22;373;49.342;8.146;2022-11-21T06:31:22;7.20;99.90
780;DHT22;373;49.342;8.146;2022-11-21T06:33:51;7.20;99.90
780;DHT22;373;49.342;8.146;2022-11-21T06:36:19;7.20;99.90
780;DHT22;373;49.342;8.146;2022-11-21T06:38:47;7.30;99.90
780;DHT22;373;49.342;8.146;2022-11-21T06:41:15;7.20;99.90
780;DHT22;373;49.342;8.146;2022-11-21T06:43:44;7.20;99.90
780;DHT22;373;49.342;8.146;2022-11-21T06:46:11;7.30;99.90
780;DHT22;373;49.342;8.146;2022-11-21T06:48:39;7.30;99.90
780;DHT22;373;49.342;8.146;2022-11-21T06:51:07;7.40;99.90
780;DHT22;373;49.342;8.146;2022-11-21T06:53:37;7.40;99.90
780;DHT22;373;49.342;8.146;2022-11-21T06:56:05;7.40;99.90
780;DHT22;373;49.342;8.146;2022-11-21T06:58:32;7.40;99.90
780;DHT22;373;49.342;8.146;2022-11-21T07:01:03;7.40;99.90
780;DHT22;373;49.342;8.146;2022-11-21T07:03:30;7.60;99.90
780;DHT22;373;49.342;8.146;2022-11-21T07:05:58;7.60;99.90
780;DHT22;373;49.342;8.146;2022-11-21T07:08:26;7.60;99.90
780;DHT22;373;49.342;8.146;2022-11-21T07:10:54;7.70;99.90
780;DHT22;373;49.342;8.146;2022-11-21T07:13:22;7.70;99.90
780;DHT22;373;49.342;8.146;2022-11-21T07:15:49;7.70;99.90
780;DHT22;373;49.342;8.146;2022-11-21T07:18:17;7.70;99.90
780;DHT22;373;49.342;8.146;2022-11-21T07:20:45;7.70;99.90
780;DHT22;373;49.342;8.146;2022-11-21T07:23:13;7.50;99.90
780;DHT22;373;49.342;8.146;2022-11-21T07:25:40;7.40;99.90
780;DHT22;373;49.342;8.146;2022-11-21T07:28:08;7.50;99.90
780;DHT22;373;49.342;8.146;2022-11-21T07:30:37;7.60;99.90
780;DHT22;373;49.342;8.146;2022-11-21T07:33:05;7.60;99.90
780;DHT22;373;49.342;8.146;2022-11-21T07:35:34;7.60;99.90
780;DHT22;373;49.342;8.146;2022-11-21T07:38:02;7.50;99.90
780;DHT22;373;49.342;8.146;2022-11-21T07:40:29;7.60;99.90
780;DHT22;373;49.342;8.146;2022-11-21T07:43:02;7.80;99.90
780;DHT22;373;49.342;8.146;2022-11-21T07:45:29;7.90;99.90
780;DHT22;373;49.342;8.146;2022-11-21T07:47:58;7.90;99.90
780;DHT22;373;49.342;8.146;2022-11-21T07:50:26;8.00;99.90
780;DHT22;373;49.342;8.146;2022-11-21T07:52:56;7.90;99.90
780;DHT22;373;49.342;8.146;2022-11-21T07:55:24;7.90;99.90
780;DHT22;373;49.342;8.146;2022-11-21T07:57:58;8.00;99.90
780;DHT22;373;49.342;8.146;2022-11-21T08:00:26;8.30;99.90
780;DHT22;373;49.342;8.146;2022-11-21T08:02:53;8.70;99.90
780;DHT22;373;49.342;8.146;2022-11-21T08:05:22;8.70;99.90
780;DHT22;373;49.342;8.146;2022-11-21T08:07:49;9.40;99.90
780;DHT22;373;49.342;8.146;2022-11-21T08:10:17;9.30;99.90
780;DHT22;373;49.342;8.146;2022-11-21T08:12:44;10.40;99.60
780;DHT22;373;49.342;8.146;2022-11-21T08:15:11;12.30;95.90
780;DHT22;373;49.342;8.146;2022-11-21T08:17:39;13.00;91.50
780;DHT22;373;49.342;8.146;2022-11-21T08:20:07;12.00;92.50
780;DHT22;373;49.342;8.146;2022-11-21T08:22:38;10.90;93.50
780;DHT22;373;49.342;8.146;2022-11-21T08:25:08;11.40;94.80
780;DHT22;373;49.342;8.146;2022-11-21T08:27:36;12.30;93.70
780;DHT22;373;49.342;8.146;2022-11-21T08:30:05;12.90;91.80
780;DHT22;373;49.342;8.146;2022-11-21T08:32:32;13.20;90.70
780;DHT22;373;49.342;8.146;2022-11-21T08:34:59;14.20;89.40
780;DHT22;373;49.342;8.146;2022-11-21T08:37:27;13.70;88.20
780;DHT22;373;49.342;8.146;2022-11-21T08:39:56;13.60;89.40
780;DHT22;373;49.342;8.146;2022-11-21T08:42:25;13.70;88.00
780;DHT22;373;49.342;8.146;2022-11-21T08:44:52;14.30;88.00
780;DHT22;373;49.342;8.146;2022-11-21T08:47:21;15.10;84.20
780;DHT22;373;49.342;8.146;2022-11-21T08:49:48;14.70;84.90
780;DHT22;373;49.342;8.146;2022-11-21T08:52:15;15.70;83.80
780;DHT22;373;49.342;8.146;2022-11-21T08:54:42;16.40;81.10
780;DHT22;373;49.342;8.146;2022-11-21T08:57:11;16.50;79.10
780;DHT22;373;49.342;8.146;2022-11-21T08:59:38;16.90;78.30
780;DHT22;373;49.342;8.146;2022-11-21T09:02:06;16.70;76.20
780;DHT22;373;49.342;8.146;2022-11-21T09:04:36;17.00;76.90
780;DHT22;373;49.342;8.146;2022-11-21T09:07:03;16.70;75.70
780;DHT22;373;49.342;8.146;2022-11-21T09:09:30;16.40;78.40
780;DHT22;373;49.342;8.146;2022-11-21T09:11:59;16.70;76.80
780;DHT22;373;49.342;8.146;2022-11-21T09:14:28;17.60;75.90
780;DHT22;373;49.342;8.146;2022-11-21T09:17:13;18.00;74.80
780;DHT22;373;49.342;8.146;2022-11-21T09:19:58;18.50;72.40
780;DHT22;373;49.342;8.146;2022-11-21T09:22:25;19.20;69.50
780;DHT22;373;49.342;8.146;2022-11-21T09:24:52;20.50;68.40
780;DHT22;373;49.342;8.146;2022-11-21T09:27:19;19.40;63.50
780;DHT22;373;49.342;8.146;2022-11-21T09:29:48;19.60;66.70
780;DHT22;373;49.342;8.146;2022-11-21T09:32:15;18.60;67.80
780;DHT22;373;49.342;8.146;2022-11-21T09:34:42;18.70;65.30
780;DHT22;373;49.342;8.146;2022-11-21T09:37:09;18.00;68.80
780;DHT22;373;49.342;8.146;2022-11-21T09:39:36;16.20;70.60
780;DHT22;373;49.342;8.146;2022-11-21T09:42:19;17.00;72.90
780;DHT22;373;49.342;8.146;2022-11-21T09:45:01;17.00;70.30
780;DHT22;373;49.342;8.146;2022-11-21T09:47:32;18.30;68.70
780;DHT22;373;49.342;8.146;2022-11-21T09:50:02;16.80;71.90
780;DHT22;373;49.342;8.146;2022-11-21T09:52:37;17.70;70.10
780;DHT22;373;49.342;8.146;2022-11-21T09:55:09;18.30;68.30
780;DHT22;373;49.342;8.146;2022-11-21T09:57:39;17.90;68.60
780;DHT22;373;49.342;8.146;2022-11-21T10:00:14;17.70;69.60
780;DHT22;373;49.342;8.146;2022-11-21T10:02:45;17.40;69.50
780;DHT22;373;49.342;8.146;2022-11-21T10:05:13;16.60;70.70
780;DHT22;373;49.342;8.146;2022-11-21T10:07:41;16.90;71.20
780;DHT22;373;49.342;8.146;2022-11-21T10:10:21;16.60;70.40
780;DHT22;373;49.342;8.146;2022-11-21T10:13:05;15.90;73.60
780;DHT22;373;49.342;8.146;2022-11-21T10:15:49;17.00;73.60
780;DHT22;373;49.342;8.146;2022-11-21T10:18:34;16.90;71.00
780;DHT22;373;49.342;8.146;2022-11-21T10:21:12;16.30;73.70
780;DHT22;373;49.342;8.146;2022-11-21T10:26:43;16.90;70.50
780;DHT22;373;49.342;8.146;2022-11-21T10:29:18;15.70;72.60
780;DHT22;373;49.342;8.146;2022-11-21T10:31:48;15.10;74.80
780;DHT22;373;49.342;8.146;2022-11-21T10:34:19;14.30;77.20
780;DHT22;373;49.342;8.146;2022-11-21T10:36:50;14.00;79.50
780;DHT22;373;49.342;8.146;2022-11-21T10:39:21;14.50;78.90
780;DHT22;373;49.342;8.146;2022-11-21T10:41:57;17.10;76.30
780;DHT22;373;49.342;8.146;2022-11-21T10:44:28;19.20;68.20
780;DHT22;373;49.342;8.146;2022-11-21T10:47:16;20.40;63.60
780;DHT22;373;49.342;8.146;2022-11-21T10:49:58;20.80;61.40
780;DHT22;373;49.342;8.146;2022-11-21T10:52:30;20.20;59.30
780;DHT22;373;49.342;8.146;2022-11-21T10:55:07;19.40;62.20
780;DHT22;373;49.342;8.146;2022-11-21T10:57:41;17.90;62.30
780;DHT22;373;49.342;8.146;2022-11-21T11:00:21;17.20;66.20
780;DHT22;373;49.342;8.146;2022-11-21T11:03:03;18.70;66.60
780;DHT22;373;49.342;8.146;2022-11-21T11:05:32;19.00;64.70
780;DHT22;373;49.342;8.146;2022-11-21T11:08:05;18.10;66.20
780;DHT22;373;49.342;8.146;2022-11-21T11:10:34;18.90;65.10
780;DHT22;373;49.342;8.146;2022-11-21T11:13:02;19.20;64.10
780;DHT22;373;49.342;8.146;2022-11-21T11:16:00;17.50;68.70
780;DHT22;373;49.342;8.146;2022-11-21T11:18:31;15.80;71.30
780;DHT22;373;49.342;8.146;2022-11-21T11:21:17;15.60;75.80
780;DHT22;373;49.342;8.146;2022-11-21T11:23:46;15.10;77.50
780;DHT22;373;49.342;8.146;2022-11-21T11:26:34;14.90;78.40
780;DHT22;373;49.342;8.146;2022-11-21T11:29:17;13.10;82.30
780;DHT22;373;49.342;8.146;2022-11-21T11:31:51;13.10;91.60
780;DHT22;373;49.342;8.146;2022-11-21T11:34:22;13.80;90.20
780;DHT22;373;49.342;8.146;2022-11-21T11:36:54;14.80;87.20
780;DHT22;373;49.342;8.146;2022-11-21T11:39:38;16.40;87.50
780;DHT22;373;49.342;8.146;2022-11-21T11:42:23;17.50;81.80
780;DHT22;373;49.342;8.146;2022-11-21T11:45:20;18.20;79.20
780;DHT22;373;49.342;8.146;2022-11-21T11:48:09;18.00;77.40
780;DHT22;373;49.342;8.146;2022-11-21T11:50:40;16.50;80.10
780;DHT22;373;49.342;8.146;2022-11-21T11:53:12;16.10;82.50
780;DHT22;373;49.342;8.146;2022-11-21T11:55:44;14.80;86.90
780;DHT22;373;49.342;8.146;2022-11-21T11:58:20;15.10;88.10
780;DHT22;373;49.342;8.146;2022-11-21T12:00:50;15.70;85.50
780;DHT22;373;49.342;8.146;2022-11-21T12:03:21;16.30;86.30
780;DHT22;373;49.342;8.146;2022-11-21T12:05:57;17.60;83.30
780;DHT22;373;49.342;8.146;2022-11-21T12:08:32;18.30;78.60
780;DHT22;373;49.342;8.146;2022-11-21T12:11:09;17.50;76.60
780;DHT22;373;49.342;8.146;2022-11-21T12:14:02;16.60;78.60
780;DHT22;373;49.342;8.146;2022-11-21T12:16:30;15.60;81.60
780;DHT22;373;49.342;8.146;2022-11-21T12:19:02;15.20;83.60
780;DHT22;373;49.342;8.146;2022-11-21T12:21:32;14.30;88.50
780;DHT22;373;49.342;8.146;2022-11-21T12:24:01;14.00;90.70
780;DHT22;373;49.342;8.146;2022-11-21T12:26:43;13.70;90.80
780;DHT22;373;49.342;8.146;2022-11-21T12:29:21;13.30;92.50
780;DHT22;373;49.342;8.146;2022-11-21T12:32:12;13.30;90.30
780;DHT22;373;49.342;8.146;2022-11-21T12:35:03;12.50;90.00
780;DHT22;373;49.342;8.146;2022-11-21T12:37:42;12.10;91.70
780;DHT22;373;49.342;8.146;2022-11-21T12:40:27;11.90;92.20
780;DHT22;373;49.342;8.146;2022-11-21T12:43:04;11.90;93.50
780;DHT22;373;49.342;8.146;2022-11-21T12:45:36;11.70;93.60
780;DHT22;373;49.342;8.146;2022-11-21T12:48:16;11.50;94.70
780;DHT22;373;49.342;8.146;2022-11-21T12:54:41;11.80;93.30
780;DHT22;373;49.342;8.146;2022-11-21T12:57:12;12.10;94.90
780;DHT22;373;49.342;8.146;2022-11-21T12:59:52;12.50;93.30
780;DHT22;373;49.342;8.146;2022-11-21T13:02:28;12.90;91.90
780;DHT22;373;49.342;8.146;2022-11-21T13:04:59;13.20;91.10
780;DHT22;373;49.342;8.146;2022-11-21T13:07:28;13.20;90.40
780;DHT22;373;49.342;8.146;2022-11-21T13:09:59;13.00;90.00
780;DHT22;373;49.342;8.146;2022-11-21T13:12:35;12.50;90.60
780;DHT22;373;49.342;8.146;2022-11-21T13:15:15;12.40;90.90
780;DHT22;373;49.342;8.146;2022-11-21T13:17:47;12.40;91.30
780;DHT22;373;49.342;8.146;2022-11-21T13:20:31;12.60;91.30
780;DHT22;373;49.342;8.146;2022-11-21T13:23:01;12.20;91.80
780;DHT22;373;49.342;8.146;2022-11-21T13:25:39;11.90;91.80
780;DHT22;373;49.342;8.146;2022-11-21T13:28:36;11.40;93.40
780;DHT22;373;49.342;8.146;2022-11-21T13:31:40;11.10;94.30
780;DHT22;373;49.342;8.146;2022-11-21T13:34:35;10.50;96.20
780;DHT22;373;49.342;8.146;2022-11-21T13:37:02;10.30;97.60
780;DHT22;373;49.342;8.146;2022-11-21T13:39:34;10.20;98.40
780;DHT22;373;49.342;8.146;2022-11-21T13:42:10;10.20;98.60
780;DHT22;373;49.342;8.146;2022-11-21T13:44:55;10.20;98.60
780;DHT22;373;49.342;8.146;2022-11-21T13:47:55;10.30;99.00
780;DHT22;373;49.342;8.146;2022-11-21T13:50:49;10.30;99.60
780;DHT22;373;49.342;8.146;2022-11-21T13:53:39;10.30;99.80
780;DHT22;373;49.342;8.146;2022-11-21T13:56:23;10.20;99.90
780;DHT22;373;49.342;8.146;2022-11-21T13:59:02;10.30;99.90
780;DHT22;373;49.342;8.146;2022-11-21T14:02:16;10.20;99.90
780;DHT22;373;49.342;8.146;2022-11-21T14:05:02;10.00;99.90
780;DHT22;373;49.342;8.146;2022-11-21T14:07:32;10.10;99.90
780;DHT22;373;49.342;8.146;2022-11-21T14:10:00;10.20;99.90
780;DHT22;373;49.342;8.146;2022-11-21T14:12:30;10.10;99.90
780;DHT22;373;49.342;8.146;2022-11-21T14:15:17;10.30;99.90
780;DHT22;373;49.342;8.146;2022-11-21T14:17:47;10.50;99.90
780;DHT22;373;49.342;8.146;2022-11-21T14:20:19;10.60;99.90
780;DHT22;373;49.342;8.146;2022-11-21T14:22:53;10.50;99.90
780;DHT22;373;49.342;8.146;2022-11-21T14:25:26;10.40;99.90
780;DHT22;373;49.342;8.146;2022-11-21T14:27:55;10.20;99.90
780;DHT22;373;49.342;8.146;2022-11-21T14:30:28;10.10;99.90
780;DHT22;373;49.342;8.146;2022-11-21T14:32:56;10.20;99.90
780;DHT22;373;49.342;8.146;2022-11-21T14:35:23;10.40;99.90
780;DHT22;373;49.342;8.146;2022-11-21T14:37:51;10.70;99.90
780;DHT22;373;49.342;8.146;2022-11-21T14:40:20;10.80;99.90
780;DHT22;373;49.342;8.146;2022-11-21T14:42:48;11.00;99.90
780;DHT22;373;49.342;8.146;2022-11-21T14:45:17;11.20;99.90
780;DHT22;373;49.342;8.146;2022-11-21T14:47:48;11.30;99.90
780;DHT22;373;49.342;8.146;2022-11-21T14:50:23;11.30;99.90
780;DHT22;373;49.342;8.146;2022-11-21T14:52:51;11.10;99.90
780;DHT22;373;49.342;8.146;2022-11-21T14:55:24;10.90;99.90
780;DHT22;373;49.342;8.146;2022-11-21T14:57:53;11.10;99.90
780;DHT22;373;49.342;8.146;2022-11-21T15:00:22;11.10;99.90
780;DHT22;373;49.342;8.146;2022-11-21T15:02:52;10.80;99.90
780;DHT22;373;49.342;8.146;2022-11-21T15:05:21;10.80;99.90
780;DHT22;373;49.342;8.146;2022-11-21T15:07:48;10.80;99.90
780;DHT22;373;49.342;8.146;2022-11-21T15:10:17;10.90;99.90
780;DHT22;373;49.342;8.146;2022-11-21T15:12:50;10.70;99.90
780;DHT22;373;49.342;8.146;2022-11-21T15:15:25;10.70;99.90
780;DHT22;373;49.342;8.146;2022-11-21T15:17:56;10.70;99.90
780;DHT22;373;49.342;8.146;2022-11-21T15:20:25;10.70;99.90
780;DHT22;373;49.342;8.146;2022-11-21T15:22:54;10.40;99.90
780;DHT22;373;49.342;8.146;2022-11-21T15:25:23;10.30;99.90
780;DHT22;373;49.342;8.146;2022-11-21T15:28:05;10.50;99.90
780;DHT22;373;49.342;8.146;2022-11-21T15:30:34;10.40;99.90
780;DHT22;373;49.342;8.146;2022-11-21T15:33:05;10.40;99.90
780;DHT22;373;49.342;8.146;2022-11-21T15:35:42;10.40;99.90
780;DHT22;373;49.342;8.146;2022-11-21T15:38:18;10.50;99.90
780;DHT22;373;49.342;8.146;2022-11-21T15:40:59;10.30;99.90
780;DHT22;373;49.342;8.146;2022-11-21T15:43:48;10.10;99.90
780;DHT22;373;49.342;8.146;2022-11-21T15:46:17;10.20;99.90
780;DHT22;373;49.342;8.146;2022-11-21T15:48:50;10.40;99.90
780;DHT22;373;49.342;8.146;2022-11-21T15:51:19;10.50;99.90
780;DHT22;373;49.342;8.146;2022-11-21T15:53:46;10.70;99.90
780;DHT22;373;49.342;8.146;2022-11-21T15:56:15;10.60;99.90
780;DHT22;373;49.342;8.146;2022-11-21T15:58:43;10.40;99.90
780;DHT22;373;49.342;8.146;2022-11-21T16:01:15;10.60;99.90
780;DHT22;373;49.342;8.146;2022-11-21T16:03:43;10.60;99.90
780;DHT22;373;49.342;8.146;2022-11-21T16:06:12;10.50;99.90
780;DHT22;373;49.342;8.146;2022-11-21T16:08:39;10.60;99.90
780;DHT22;373;49.342;8.146;2022-11-21T16:11:06;10.50;99.90
780;DHT22;373;49.342;8.146;2022-11-21T16:13:33;10.50;99.90
780;DHT22;373;49.342;8.146;2022-11-21T16:16:01;10.60;99.90
780;DHT22;373;49.342;8.146;2022-11-21T16:18:29;10.70;99.90
780;DHT22;373;49.342;8.146;2022-11-21T16:21:06;10.20;99.90
780;DHT22;373;49.342;8.146;2022-11-21T16:23:35;10.30;99.90
780;DHT22;373;49.342;8.146;2022-11-21T16:26:02;10.20;99.90
780;DHT22;373;49.342;8.146;2022-11-21T16:28:29;9.90;99.90
780;DHT22;373;49.342;8.146;2022-11-21T16:30:57;10.00;99.90
780;DHT22;373;49.342;8.146;2022-11-21T16:33:24;9.70;99.90
780;DHT22;373;49.342;8.146;2022-11-21T16:35:51;9.90;99.90
780;DHT22;373;49.342;8.146;2022-11-21T16:38:22;10.00;99.90
780;DHT22;373;49.342;8.146;2022-11-21T16:40:54;10.10;99.90
780;DHT22;373;49.342;8.146;2022-11-21T16:43:22;10.20;99.90
780;DHT22;373;49.342;8.146;2022-11-21T16:45:50;10.20;99.90
780;DHT22;373;49.342;8.146;2022-11-21T16:48:17;10.10;99.90
780;DHT22;373;49.342;8.146;2022-11-21T16:50:44;10.10;99.90
780;DHT22;373;49.342;8.146;2022-11-21T16:53:12;9.70;99.90
780;DHT22;373;49.342;8.146;2022-11-21T16:55:39;9.70;99.90
780;DHT22;373;49.342;8.146;2022-11-21T16:58:07;9.70;99.90
780;DHT22;373;49.342;8.146;2022-11-21T17:00:35;9.40;99.90
780;DHT22;373;49.342;8.146;2022-11-21T17:03:02;9.20;99.90
780;DHT22;373;49.342;8.146;2022-11-21T17:05:29;9.10;99.90
780;DHT22;373;49.342;8.146;2022-11-21T17:07:56;8.90;99.90
780;DHT22;373;49.342;8.146;2022-11-21T17:10:26;9.10;99.90
780;DHT22;373;49.342;8.146;2022-11-21T17:12:54;9.30;99.90
780;DHT22;373;49.342;8.146;2022-11-21T17:15:22;9.20;99.90